sensor_id;sensor_type;location;lat;lon;timestamp;temperature;humidity
36790;DHT22;22740;52.182;8.780;2023-07-31T00:02:14;15.70;99.90
36790;DHT22;22740;52.182;8.780;2023-07-31T00:08:16;15.70;99.90
36790;DHT22;22740;52.182;8.780;2023-07-31T00:14:18;15.60;99.90
36790;DHT22;22740;52.182;8.780;2023-07-31T00:20:21;15.60;99.90
36790;DHT22;22740;52.182;8.780;2023-07-31T00:26:24;15.50;99.90
36790;DHT22;22740;52.182;8.780;2023-07-31T00:32:26;15.50;99.90
36790;DHT22;22740;52.182;8.780;2023-07-31T00:38:29;15.50;99.90
36790;DHT22;22740;52.182;8.780;2023-07-31T00:44:32;15.40;99.90
36790;DHT22;22740;52.182;8.780;2023-07-31T00:50:35;15.40;99.90
36790;DHT22;22740;52.182;8.780;2023-07-31T00:56:38;15.50;99.90
36790;DHT22;22740;52.182;8.780;2023-07-31T01:02:41;15.50;99.90
36790;DHT22;22740;52.182;8.780;2023-07-31T01:08:57;15.50;99.90
36790;DHT22;22740;52.182;8.780;2023-07-31T01:15:02;15.60;99.90
36790;DHT22;22740;52.182;8.780;2023-07-31T01:27:30;15.50;99.90
36790;DHT22;22740;52.182;8.780;2023-07-31T01:33:33;15.50;99.90
36790;DHT22;22740;52.182;8.780;2023-07-31T01:39:37;15.50;99.90
36790;DHT22;22740;52.182;8.780;2023-07-31T01:45:39;15.60;99.90
36790;DHT22;22740;52.182;8.780;2023-07-31T01:51:42;15.50;99.90
36790;DHT22;22740;52.182;8.780;2023-07-31T01:57:46;15.50;99.90
36790;DHT22;22740;52.182;8.780;2023-07-31T02:03:48;15.50;99.90
36790;DHT22;22740;52.182;8.780;2023-07-31T02:09:51;15.40;99.90
36790;DHT22;22740;52.182;8.780;2023-07-31T02:15:54;15.20;99.90
36790;DHT22;22740;52.182;8.780;2023-07-31T02:21:57;15.20;99.90
36790;DHT22;22740;52.182;8.780;2023-07-31T02:27:59;15.10;99.90
36790;DHT22;22740;52.182;8.780;2023-07-31T02:34:02;15.20;99.90
36790;DHT22;22740;52.182;8.780;2023-07-31T02:40:05;15.10;99.90
36790;DHT22;22740;52.182;8.780;2023-07-31T02:46:07;15.10;99.90
36790;DHT22;22740;52.182;8.780;2023-07-31T02:52:10;15.00;99.90
36790;DHT22;22740;52.182;8.780;2023-07-31T02:58:13;15.00;99.90
36790;DHT22;22740;52.182;8.780;2023-07-31T03:04:15;14.90;99.90
36790;DHT22;22740;52.182;8.780;2023-07-31T03:10:19;14.80;99.90
36790;DHT22;22740;52.182;8.780;2023-07-31T03:16:22;14.70;99.90
36790;DHT22;22740;52.182;8.780;2023-07-31T03:22:26;14.70;99.90
36790;DHT22;22740;52.182;8.780;2023-07-31T03:28:29;14.60;99.90
36790;DHT22;22740;52.182;8.780;2023-07-31T03:34:32;14.60;99.90
36790;DHT22;22740;52.182;8.780;2023-07-31T03:40:36;14.60;99.90
36790;DHT22;22740;52.182;8.780;2023-07-31T03:46:39;14.60;99.90
36790;DHT22;22740;52.182;8.780;2023-07-31T03:52:42;14.60;99.90
36790;DHT22;22740;52.182;8.780;2023-07-31T03:58:44;14.60;99.90
36790;DHT22;22740;52.182;8.780;2023-07-31T04:04:47;14.70;99.90
36790;DHT22;22740;52.182;8.780;2023-07-31T04:10:50;14.80;99.90
36790;DHT22;22740;52.182;8.780;2023-07-31T04:16:53;14.90;99.90
36790;DHT22;22740;52.182;8.780;2023-07-31T04:22:56;14.90;99.90
36790;DHT22;22740;52.182;8.780;2023-07-31T04:28:59;15.00;99.90
36790;DHT22;22740;52.182;8.780;2023-07-31T04:35:03;15.10;99.90
36790;DHT22;22740;52.182;8.780;2023-07-31T04:41:06;15.20;99.90
36790;DHT22;22740;52.182;8.780;2023-07-31T04:47:09;15.20;99.90
36790;DHT22;22740;52.182;8.780;2023-07-31T04:53:14;15.30;99.90
36790;DHT22;22740;52.182;8.780;2023-07-31T04:59:17;15.30;99.90
36790;DHT22;22740;52.182;8.780;2023-07-31T05:05:19;15.30;99.90
36790;DHT22;22740;52.182;8.780;2023-07-31T05:11:23;15.30;99.90
36790;DHT22;22740;52.182;8.780;2023-07-31T05:17:25;15.30;99.90
36790;DHT22;22740;52.182;8.780;2023-07-31T05:23:27;15.30;99.90
36790;DHT22;22740;52.182;8.780;2023-07-31T05:29:29;15.30;99.90
36790;DHT22;22740;52.182;8.780;2023-07-31T05:35:32;15.30;99.90
36790;DHT22;22740;52.182;8.780;2023-07-31T05:41:36;15.20;99.90
36790;DHT22;22740;52.182;8.780;2023-07-31T05:47:44;15.20;99.90
36790;DHT22;22740;52.182;8.780;2023-07-31T05:53:47;15.20;99.90
36790;DHT22;22740;52.182;8.780;2023-07-31T05:59:49;15.20;99.90
36790;DHT22;22740;52.182;8.780;2023-07-31T06:05:52;15.20;99.90
36790;DHT22;22740;52.182;8.780;2023-07-31T06:11:56;15.20;99.90
36790;DHT22;22740;52.182;8.780;2023-07-31T06:17:59;15.30;99.90
36790;DHT22;22740;52.182;8.780;2023-07-31T06:24:08;15.40;99.90
36790;DHT22;22740;52.182;8.780;2023-07-31T06:56:56;15.40;99.90
36790;DHT22;22740;52.182;8.780;2023-07-31T07:02:57;15.40;99.90
36790;DHT22;22740;52.182;8.780;2023-07-31T07:08:59;15.30;99.90
36790;DHT22;22740;52.182;8.780;2023-07-31T07:15:01;15.20;99.90
36790;DHT22;22740;52.182;8.780;2023-07-31T07:21:04;15.30;99.90
36790;DHT22;22740;52.182;8.780;2023-07-31T07:27:06;15.40;99.90
36790;DHT22;22740;52.182;8.780;2023-07-31T07:33:08;15.50;99.90
36790;DHT22;22740;52.182;8.780;2023-07-31T07:39:10;15.60;99.90
36790;DHT22;22740;52.182;8.780;2023-07-31T07:45:12;15.90;99.90
36790;DHT22;22740;52.182;8.780;2023-07-31T07:51:14;16.00;99.90
36790;DHT22;22740;52.182;8.780;2023-07-31T07:57:16;15.90;99.90
36790;DHT22;22740;52.182;8.780;2023-07-31T08:03:18;15.80;99.90
36790;DHT22;22740;52.182;8.780;2023-07-31T08:09:21;15.70;99.90
36790;DHT22;22740;52.182;8.780;2023-07-31T08:15:22;15.70;99.90
36790;DHT22;22740;52.182;8.780;2023-07-31T08:21:24;15.60;99.90
36790;DHT22;22740;52.182;8.780;2023-07-31T08:27:26;15.70;99.90
36790;DHT22;22740;52.182;8.780;2023-07-31T08:33:27;15.70;99.90
36790;DHT22;22740;52.182;8.780;2023-07-31T08:39:29;15.80;99.90
36790;DHT22;22740;52.182;8.780;2023-07-31T08:45:31;15.80;99.90
36790;DHT22;22740;52.182;8.780;2023-07-31T08:51:34;15.90;99.90
36790;DHT22;22740;52.182;8.780;2023-07-31T08:57:36;15.90;99.90
36790;DHT22;22740;52.182;8.780;2023-07-31T09:03:38;16.00;99.90
36790;DHT22;22740;52.182;8.780;2023-07-31T09:09:41;16.10;99.90
36790;DHT22;22740;52.182;8.780;2023-07-31T09:15:43;16.30;99.90
36790;DHT22;22740;52.182;8.780;2023-07-31T09:21:47;16.40;99.90
36790;DHT22;22740;52.182;8.780;2023-07-31T09:27:51;16.60;99.90
36790;DHT22;22740;52.182;8.780;2023-07-31T09:33:56;16.60;99.90
36790;DHT22;22740;52.182;8.780;2023-07-31T09:39:57;16.60;99.90
36790;DHT22;22740;52.182;8.780;2023-07-31T09:46:00;16.60;99.90
36790;DHT22;22740;52.182;8.780;2023-07-31T09:52:02;16.60;99.90
36790;DHT22;22740;52.182;8.780;2023-07-31T09:58:13;16.60;99.90
36790;DHT22;22740;52.182;8.780;2023-07-31T10:04:14;16.70;99.90
36790;DHT22;22740;52.182;8.780;2023-07-31T10:10:21;16.70;99.90
36790;DHT22;22740;52.182;8.780;2023-07-31T10:16:23;16.70;99.90
36790;DHT22;22740;52.182;8.780;2023-07-31T10:22:25;16.70;99.90
36790;DHT22;22740;52.182;8.780;2023-07-31T10:28:27;16.70;99.90
36790;DHT22;22740;52.182;8.780;2023-07-31T10:34:31;16.70;99.90
36790;DHT22;22740;52.182;8.780;2023-07-31T10:40:33;16.70;99.90
36790;DHT22;22740;52.182;8.780;2023-07-31T10:46:36;16.70;99.90
36790;DHT22;22740;52.182;8.780;2023-07-31T10:52:38;16.70;99.90
36790;DHT22;22740;52.182;8.780;2023-07-31T10:58:40;16.70;99.90
36790;DHT22;22740;52.182;8.780;2023-07-31T11:04:45;16.80;99.90
36790;DHT22;22740;52.182;8.780;2023-07-31T11:11:10;16.90;99.90
36790;DHT22;22740;52.182;8.780;2023-07-31T11:17:12;16.70;99.90
36790;DHT22;22740;52.182;8.780;2023-07-31T11:23:15;16.70;99.90
36790;DHT22;22740;52.182;8.780;2023-07-31T11:29:18;16.70;99.90
36790;DHT22;22740;52.182;8.780;2023-07-31T11:35:20;16.60;99.90
36790;DHT22;22740;52.182;8.780;2023-07-31T11:41:22;16.60;99.90
36790;DHT22;22740;52.182;8.780;2023-07-31T11:47:25;16.70;99.90
36790;DHT22;22740;52.182;8.780;2023-07-31T11:53:38;16.60;99.90
36790;DHT22;22740;52.182;8.780;2023-07-31T11:59:40;16.80;99.90
36790;DHT22;22740;52.182;8.780;2023-07-31T12:05:42;16.80;99.90
36790;DHT22;22740;52.182;8.780;2023-07-31T12:11:47;16.80;99.90
36790;DHT22;22740;52.182;8.780;2023-07-31T12:17:49;16.70;99.90
36790;DHT22;22740;52.182;8.780;2023-07-31T12:23:51;17.10;99.90
36790;DHT22;22740;52.182;8.780;2023-07-31T12:29:52;17.30;99.90
36790;DHT22;22740;52.182;8.780;2023-07-31T12:35:54;17.30;99.90
36790;DHT22;22740;52.182;8.780;2023-07-31T12:41:56;17.20;99.90
36790;DHT22;22740;52.182;8.780;2023-07-31T12:47:58;17.20;99.90
36790;DHT22;22740;52.182;8.780;2023-07-31T12:54:00;17.20;99.90
36790;DHT22;22740;52.182;8.780;2023-07-31T13:00:05;17.10;99.90
36790;DHT22;22740;52.182;8.780;2023-07-31T13:06:07;17.10;99.90
36790;DHT22;22740;52.182;8.780;2023-07-31T13:12:08;17.10;99.90
36790;DHT22;22740;52.182;8.780;2023-07-31T13:18:10;17.00;99.90
36790;DHT22;22740;52.182;8.780;2023-07-31T13:24:12;16.90;99.90
36790;DHT22;22740;52.182;8.780;2023-07-31T13:30:14;16.90;99.90
36790;DHT22;22740;52.182;8.780;2023-07-31T13:36:17;16.90;99.90
36790;DHT22;22740;52.182;8.780;2023-07-31T13:42:19;17.00;99.90
36790;DHT22;22740;52.182;8.780;2023-07-31T13:48:21;17.00;99.90
36790;DHT22;22740;52.182;8.780;2023-07-31T13:54:23;17.00;99.90
36790;DHT22;22740;52.182;8.780;2023-07-31T14:00:25;17.20;99.90
36790;DHT22;22740;52.182;8.780;2023-07-31T14:06:27;17.40;99.90
36790;DHT22;22740;52.182;8.780;2023-07-31T14:12:29;17.50;99.90
36790;DHT22;22740;52.182;8.780;2023-07-31T14:18:42;17.70;99.90
36790;DHT22;22740;52.182;8.780;2023-07-31T14:24:45;17.80;99.90
36790;DHT22;22740;52.182;8.780;2023-07-31T14:30:47;17.70;99.90
36790;DHT22;22740;52.182;8.780;2023-07-31T14:36:49;17.70;99.90
36790;DHT22;22740;52.182;8.780;2023-07-31T14:42:51;17.80;99.90
36790;DHT22;22740;52.182;8.780;2023-07-31T14:48:52;17.70;99.90
36790;DHT22;22740;52.182;8.780;2023-07-31T14:54:54;17.80;99.90
36790;DHT22;22740;52.182;8.780;2023-07-31T15:00:56;17.80;99.90
36790;DHT22;22740;52.182;8.780;2023-07-31T15:06:58;17.80;99.90
36790;DHT22;22740;52.182;8.780;2023-07-31T15:13:00;17.80;99.90
36790;DHT22;22740;52.182;8.780;2023-07-31T15:19:02;17.90;99.90
36790;DHT22;22740;52.182;8.780;2023-07-31T15:25:04;18.00;99.90
36790;DHT22;22740;52.182;8.780;2023-07-31T15:31:06;18.10;99.90
36790;DHT22;22740;52.182;8.780;2023-07-31T15:37:08;18.20;99.90
36790;DHT22;22740;52.182;8.780;2023-07-31T15:43:10;18.30;99.90
36790;DHT22;22740;52.182;8.780;2023-07-31T15:49:11;18.20;99.90
36790;DHT22;22740;52.182;8.780;2023-07-31T15:55:15;18.10;99.90
36790;DHT22;22740;52.182;8.780;2023-07-31T16:01:16;18.00;99.90
36790;DHT22;22740;52.182;8.780;2023-07-31T16:07:18;18.10;99.90
36790;DHT22;22740;52.182;8.780;2023-07-31T16:13:22;18.00;99.90
36790;DHT22;22740;52.182;8.780;2023-07-31T16:19:23;18.00;99.90
36790;DHT22;22740;52.182;8.780;2023-07-31T16:25:28;17.90;99.90
36790;DHT22;22740;52.182;8.780;2023-07-31T16:31:30;17.60;99.90
36790;DHT22;22740;52.182;8.780;2023-07-31T16:37:47;17.40;99.90
36790;DHT22;22740;52.182;8.780;2023-07-31T16:43:49;17.30;99.90
36790;DHT22;22740;52.182;8.780;2023-07-31T16:49:51;17.40;99.90
36790;DHT22;22740;52.182;8.780;2023-07-31T16:55:52;17.40;99.90
36790;DHT22;22740;52.182;8.780;2023-07-31T17:01:54;17.40;99.90
36790;DHT22;22740;52.182;8.780;2023-07-31T17:08:15;17.40;99.90
36790;DHT22;22740;52.182;8.780;2023-07-31T17:14:17;17.50;99.90
36790;DHT22;22740;52.182;8.780;2023-07-31T17:20:19;17.50;99.90
36790;DHT22;22740;52.182;8.780;2023-07-31T17:26:22;17.50;99.90
36790;DHT22;22740;52.182;8.780;2023-07-31T17:32:24;17.50;99.90
36790;DHT22;22740;52.182;8.780;2023-07-31T17:38:26;17.50;99.90
36790;DHT22;22740;52.182;8.780;2023-07-31T17:44:28;17.50;99.90
36790;DHT22;22740;52.182;8.780;2023-07-31T17:50:31;17.40;99.90
36790;DHT22;22740;52.182;8.780;2023-07-31T17:56:33;17.50;99.90
36790;DHT22;22740;52.182;8.780;2023-07-31T18:02:39;17.40;99.90
36790;DHT22;22740;52.182;8.780;2023-07-31T18:08:42;17.40;99.90
36790;DHT22;22740;52.182;8.780;2023-07-31T18:14:43;17.20;99.90
36790;DHT22;22740;52.182;8.780;2023-07-31T18:20:45;17.20;99.90
36790;DHT22;22740;52.182;8.780;2023-07-31T18:26:47;17.10;99.90
36790;DHT22;22740;52.182;8.780;2023-07-31T18:32:50;17.10;99.90
36790;DHT22;22740;52.182;8.780;2023-07-31T18:38:51;17.00;99.90
36790;DHT22;22740;52.182;8.780;2023-07-31T18:44:53;17.00;99.90
36790;DHT22;22740;52.182;8.780;2023-07-31T18:50:55;16.90;99.90
36790;DHT22;22740;52.182;8.780;2023-07-31T18:56:57;16.90;99.90
36790;DHT22;22740;52.182;8.780;2023-07-31T19:02:58;16.80;99.90
36790;DHT22;22740;52.182;8.780;2023-07-31T19:09:00;16.80;99.90
36790;DHT22;22740;52.182;8.780;2023-07-31T19:15:03;16.80;99.90
36790;DHT22;22740;52.182;8.780;2023-07-31T19:21:04;16.80;99.90
36790;DHT22;22740;52.182;8.780;2023-07-31T19:27:06;16.80;99.90
36790;DHT22;22740;52.182;8.780;2023-07-31T19:33:08;16.70;99.90
36790;DHT22;22740;52.182;8.780;2023-07-31T19:39:10;16.70;99.90
36790;DHT22;22740;52.182;8.780;2023-07-31T19:45:12;16.70;99.90
36790;DHT22;22740;52.182;8.780;2023-07-31T19:51:14;16.70;99.90
36790;DHT22;22740;52.182;8.780;2023-07-31T19:57:16;16.60;99.90
36790;DHT22;22740;52.182;8.780;2023-07-31T20:03:20;16.60;99.90
36790;DHT22;22740;52.182;8.780;2023-07-31T20:09:22;16.50;99.90
36790;DHT22;22740;52.182;8.780;2023-07-31T20:15:24;16.50;99.90
36790;DHT22;22740;52.182;8.780;2023-07-31T20:21:25;16.50;99.90
36790;DHT22;22740;52.182;8.780;2023-07-31T20:27:27;16.50;99.90
36790;DHT22;22740;52.182;8.780;2023-07-31T20:33:29;16.50;99.90
36790;DHT22;22740;52.182;8.780;2023-07-31T20:39:31;16.40;99.90
36790;DHT22;22740;52.182;8.780;2023-07-31T20:45:33;16.40;99.90
36790;DHT22;22740;52.182;8.780;2023-07-31T20:51:39;16.30;99.90
36790;DHT22;22740;52.182;8.780;2023-07-31T20:57:43;16.30;99.90
36790;DHT22;22740;52.182;8.780;2023-07-31T21:03:45;16.30;99.90
36790;DHT22;22740;52.182;8.780;2023-07-31T21:09:47;16.30;99.90
36790;DHT22;22740;52.182;8.780;2023-07-31T21:15:49;16.30;99.90
36790;DHT22;22740;52.182;8.780;2023-07-31T21:21:51;16.30;99.90
36790;DHT22;22740;52.182;8.780;2023-07-31T21:27:53;16.20;99.90
36790;DHT22;22740;52.182;8.780;2023-07-31T21:33:54;16.20;99.90
36790;DHT22;22740;52.182;8.780;2023-07-31T21:39:56;16.20;99.90
36790;DHT22;22740;52.182;8.780;2023-07-31T21:45:58;16.20;99.90
36790;DHT22;22740;52.182;8.780;2023-07-31T21:52:00;16.20;99.90
36790;DHT22;22740;52.182;8.780;2023-07-31T21:58:02;16.20;99.90
36790;DHT22;22740;52.182;8.780;2023-07-31T22:04:03;16.20;99.90
36790;DHT22;22740;52.182;8.780;2023-07-31T22:10:05;16.20;99.90
36790;DHT22;22740;52.182;8.780;2023-07-31T22:16:07;16.00;99.90
36790;DHT22;22740;52.182;8.780;2023-07-31T22:22:09;15.90;99.90
36790;DHT22;22740;52.182;8.780;2023-07-31T22:28:11;15.90;99.90
36790;DHT22;22740;52.182;8.780;2023-07-31T22:34:21;15.90;99.90
36790;DHT22;22740;52.182;8.780;2023-07-31T22:40:23;15.80;99.90
36790;DHT22;22740;52.182;8.780;2023-07-31T22:46:25;15.80;99.90
36790;DHT22;22740;52.182;8.780;2023-07-31T22:52:27;15.80;99.90
36790;DHT22;22740;52.182;8.780;2023-07-31T22:58:29;16.00;99.90
36790;DHT22;22740;52.182;8.780;2023-07-31T23:04:30;16.10;99.90
36790;DHT22;22740;52.182;8.780;2023-07-31T23:10:33;16.10;99.90
36790;DHT22;22740;52.182;8.780;2023-07-31T23:16:35;16.10;99.90
36790;DHT22;22740;52.182;8.780;2023-07-31T23:22:37;16.10;99.90
36790;DHT22;22740;52.182;8.780;2023-07-31T23:28:39;16.10;99.90
36790;DHT22;22740;52.182;8.780;2023-07-31T23:34:41;16.10;99.90
36790;DHT22;22740;52.182;8.780;2023-07-31T23:40:43;16.10;99.90
36790;DHT22;22740;52.182;8.780;2023-07-31T23:46:45;16.20;99.90
36790;DHT22;22740;52.182;8.780;2023-07-31T23:52:50;16.20;99.90
36790;DHT22;22740;52.182;8.780;2023-07-31T23:58:52;16.20;99.90
